createdAt,value
2023-03-06T00:00:29.998Z,524.00
2023-03-06T00:01:30.070Z,526.00
2023-03-06T00:02:30.120Z,520.00
2023-03-06T00:03:30.232Z,521.00
2023-03-06T00:04:30.258Z,520.00
2023-03-06T00:05:30.339Z,518.00
2023-03-06T00:06:30.372Z,519.00
2023-03-06T00:07:30.484Z,524.00
2023-03-06T00:08:30.500Z,520.00
2023-03-06T00:09:30.563Z,523.00
2023-03-06T00:10:30.629Z,523.00
2023-03-06T00:11:31.446Z,527.00
2023-03-06T02:04:38.061Z,524.00
2023-03-06T02:14:37.745Z,527.00
2023-03-06T02:15:37.784Z,524.00
2023-03-06T02:16:37.911Z,523.00
2023-03-06T02:17:37.854Z,527.00
2023-03-06T02:18:37.894Z,527.00
2023-03-06T02:19:37.926Z,523.00
2023-03-06T02:20:38.046Z,523.00
2023-03-06T02:21:37.990Z,522.00
2023-03-06T02:22:38.038Z,526.00
2023-03-06T02:23:38.149Z,526.00
2023-03-06T02:24:38.119Z,524.00
2023-03-06T02:25:38.152Z,527.00
2023-03-06T02:26:38.179Z,525.00
2023-03-06T02:27:38.220Z,528.00
2023-03-06T02:28:38.261Z,523.00
2023-03-06T02:29:38.311Z,524.00
2023-03-06T02:30:38.393Z,526.00
2023-03-06T02:31:38.382Z,523.00
2023-03-06T02:32:38.467Z,527.00
2023-03-06T02:45:38.900Z,522.00
2023-03-06T02:46:38.936Z,520.00
2023-03-06T02:47:39.097Z,520.00
2023-03-06T02:48:38.990Z,519.00
2023-03-06T02:49:39.025Z,522.00
2023-03-06T02:50:39.061Z,527.00
2023-03-06T02:51:39.096Z,522.00
2023-03-06T02:52:39.133Z,521.00
2023-03-06T02:53:39.159Z,523.00
2023-03-06T02:54:39.180Z,519.00
2023-03-06T02:55:39.218Z,518.00
2023-03-06T02:56:39.250Z,514.00
2023-03-06T02:57:39.288Z,520.00
2023-03-06T02:58:39.334Z,523.00
2023-03-06T02:59:39.366Z,526.00
2023-03-06T03:00:40.170Z,517.00
2023-03-06T03:01:40.128Z,523.00
2023-03-06T03:02:39.494Z,521.00
2023-03-06T03:03:39.526Z,523.00
2023-03-06T03:04:39.650Z,519.00
2023-03-06T03:05:39.631Z,524.00
2023-03-06T03:06:39.638Z,523.00
2023-03-06T03:08:39.728Z,518.00
2023-03-06T03:09:39.767Z,521.00
2023-03-06T03:11:39.827Z,518.00
2023-03-06T03:23:40.593Z,522.00
2023-03-06T03:24:40.373Z,524.00
2023-03-06T03:26:40.409Z,529.00
2023-03-06T03:27:40.519Z,520.00
2023-03-06T03:28:40.563Z,519.00
2023-03-06T03:29:40.526Z,520.00
2023-03-06T03:30:40.575Z,517.00
2023-03-06T03:31:40.690Z,519.00
2023-03-06T03:32:40.639Z,518.00
2023-03-06T03:33:40.672Z,520.00
2023-03-06T03:34:40.708Z,520.00
2023-03-06T03:35:40.767Z,522.00
2023-03-06T03:36:40.808Z,523.00
2023-03-06T03:37:40.821Z,522.00
2023-03-06T03:38:40.872Z,521.00
2023-03-06T03:40:40.950Z,522.00
2023-03-06T03:42:41.056Z,520.00
2023-03-06T06:36:47.758Z,818.00
2023-03-06T06:37:47.786Z,777.00
2023-03-06T06:38:47.844Z,749.00
2023-03-06T06:41:19.094Z,862.00
2023-03-06T06:42:47.982Z,866.00
2023-03-06T06:44:48.000Z,912.00
2023-03-06T06:45:49.545Z,965.00
2023-03-06T06:48:48.031Z,1090.00
2023-03-06T06:56:48.150Z,1291.00
2023-03-06T06:57:48.040Z,1317.00
2023-03-06T06:58:48.044Z,1345.00
2023-03-06T06:59:48.049Z,1373.00
2023-03-06T07:00:48.090Z,1380.00
2023-03-06T07:01:48.126Z,1425.00
2023-03-06T07:02:48.090Z,1436.00
2023-03-06T07:03:48.148Z,1445.00
2023-03-06T07:05:02.623Z,1459.00
2023-03-06T07:05:49.186Z,1461.00
2023-03-06T07:06:48.125Z,1464.00
2023-03-06T07:07:48.118Z,1477.00
2023-03-06T07:09:48.156Z,1548.00
2023-03-06T07:10:48.140Z,1553.00
2023-03-06T07:11:48.138Z,1546.00
2023-03-06T07:14:48.190Z,1663.00
2023-03-06T07:15:48.655Z,1686.00
2023-03-06T07:16:48.129Z,1716.00
2023-03-06T07:18:48.126Z,1810.00
2023-03-06T07:19:48.187Z,1809.00
2023-03-06T07:20:48.119Z,1811.00
2023-03-06T07:21:48.123Z,1776.00
2023-03-06T07:22:51.686Z,1750.00
2023-03-06T07:23:48.111Z,1751.00
2023-03-06T07:24:48.125Z,1757.00
2023-03-06T07:25:48.127Z,1764.00
2023-03-06T07:26:48.122Z,1780.00
2023-03-06T07:27:53.250Z,1794.00
2023-03-06T07:28:52.725Z,1754.00
2023-03-06T07:29:48.130Z,1754.00
2023-03-06T07:30:48.130Z,1761.00
2023-03-06T07:31:48.229Z,1766.00
2023-03-06T07:32:48.147Z,1771.00
2023-03-06T07:33:48.155Z,1789.00
2023-03-06T07:34:48.154Z,1777.00
2023-03-06T07:35:48.278Z,1782.00
2023-03-06T07:36:48.189Z,1776.00
2023-03-06T07:37:48.268Z,1770.00
2023-03-06T07:38:48.195Z,1767.00
2023-03-06T07:39:48.258Z,1759.00
2023-03-06T07:40:48.224Z,1754.00
2023-03-06T07:41:48.227Z,1755.00
2023-03-06T07:42:48.237Z,1749.00
2023-03-06T07:43:48.256Z,1754.00
2023-03-06T07:44:48.696Z,1725.00
2023-03-06T07:45:48.410Z,1722.00
2023-03-06T07:46:48.513Z,1718.00
2023-03-06T07:47:48.595Z,1725.00
2023-03-06T07:48:48.638Z,1709.00
2023-03-06T07:49:48.735Z,1723.00
2023-03-06T07:50:48.814Z,1730.00
2023-03-06T07:51:48.899Z,1708.00
2023-03-06T07:52:48.978Z,1722.00
2023-03-06T07:53:49.078Z,1700.00
2023-03-06T07:54:49.147Z,1710.00
2023-03-06T07:55:49.709Z,1678.00
2023-03-06T07:56:49.322Z,1685.00
2023-03-06T07:57:49.391Z,1672.00
2023-03-06T07:58:49.471Z,1668.00
2023-03-06T07:59:49.634Z,1680.00
2023-03-06T08:00:49.629Z,1667.00
2023-03-06T08:01:49.718Z,1670.00
2023-03-06T08:02:49.842Z,1661.00
2023-03-06T08:03:50.795Z,1655.00
2023-03-06T08:04:49.975Z,1656.00
2023-03-06T08:05:50.054Z,1656.00
2023-03-06T08:06:50.147Z,1651.00
2023-03-06T08:08:50.303Z,1651.00
2023-03-06T08:09:50.452Z,1651.00
2023-03-06T08:10:50.482Z,1646.00
2023-03-06T08:11:50.581Z,1631.00
2023-03-06T08:12:50.653Z,1632.00
2023-03-06T08:13:50.737Z,1634.00
2023-03-06T08:14:50.818Z,1622.00
2023-03-06T08:15:50.957Z,1612.00
2023-03-06T08:16:50.987Z,1596.00
2023-03-06T08:17:51.093Z,1623.00
2023-03-06T08:18:52.092Z,1615.00
2023-03-06T08:19:51.106Z,1594.00
2023-03-06T08:20:51.116Z,1569.00
2023-03-06T08:22:51.164Z,1544.00
2023-03-06T08:23:51.174Z,1550.00
2023-03-06T08:24:51.197Z,1541.00
2023-03-06T08:25:51.260Z,1536.00
2023-03-06T08:26:51.238Z,1544.00
2023-03-06T08:27:51.281Z,1538.00
2023-03-06T08:28:51.360Z,1548.00
2023-03-06T08:29:51.448Z,1544.00
2023-03-06T08:30:51.514Z,1542.00
2023-03-06T08:31:51.667Z,1543.00
2023-03-06T08:32:51.705Z,1538.00
2023-03-06T08:33:51.780Z,1535.00
2023-03-06T08:34:51.848Z,1538.00
2023-03-06T08:35:51.908Z,1531.00
2023-03-06T08:36:51.973Z,1539.00
2023-03-06T08:37:52.699Z,1516.00
2023-03-06T08:38:52.149Z,1538.00
2023-03-06T08:39:52.235Z,1523.00
2023-03-06T08:40:53.204Z,1507.00
2023-03-06T08:41:52.415Z,1537.00
2023-03-06T08:44:52.664Z,1490.00
2023-03-06T08:45:52.763Z,1506.00
2023-03-06T08:46:52.820Z,1503.00
2023-03-06T08:47:52.904Z,1506.00
2023-03-06T08:48:52.991Z,1489.00
2023-03-06T08:49:53.061Z,1490.00
2023-03-06T08:50:53.139Z,1469.00
2023-03-06T09:40:57.736Z,1370.00
2023-03-06T09:41:57.097Z,1363.00
2023-03-06T09:42:57.722Z,1357.00
2023-03-06T09:43:57.195Z,1338.00
2023-03-06T09:44:57.275Z,1341.00
2023-03-06T09:45:57.410Z,1335.00
2023-03-06T09:46:57.425Z,1352.00
2023-03-06T09:47:57.498Z,1341.00
2023-03-06T09:48:57.580Z,1327.00
2023-03-06T09:49:57.654Z,1327.00
2023-03-06T09:50:58.893Z,1319.00
2023-03-06T09:51:57.814Z,1336.00
2023-03-06T09:52:57.896Z,1315.00
2023-03-06T09:53:57.979Z,1307.00
2023-03-06T09:54:58.072Z,1302.00
2023-03-06T09:55:58.144Z,1304.00
2023-03-06T09:56:58.228Z,1324.00
2023-03-06T09:57:58.298Z,1289.00
2023-03-06T09:58:58.369Z,1295.00
2023-03-06T09:59:58.456Z,1303.00
2023-03-06T10:00:58.534Z,1289.00
2023-03-06T10:01:58.633Z,1289.00
2023-03-06T10:02:58.772Z,1298.00
2023-03-06T10:03:58.759Z,1285.00
2023-03-06T10:04:58.923Z,1284.00
2023-03-06T10:06:00.879Z,1281.00
2023-03-06T10:06:58.936Z,1293.00
2023-03-06T10:07:58.948Z,1285.00
2023-03-06T10:08:59.027Z,1288.00
2023-03-06T10:09:58.960Z,1264.00
2023-03-06T10:10:58.962Z,1270.00
2023-03-06T10:11:58.970Z,1262.00
2023-03-06T10:12:58.997Z,1262.00
2023-03-06T10:13:59.018Z,1270.00
2023-03-06T10:14:59.016Z,1272.00
2023-03-06T10:15:59.054Z,1258.00
2023-03-06T10:16:59.036Z,1261.00
2023-03-06T10:17:59.052Z,1302.00
2023-03-06T10:18:59.056Z,1318.00
2023-03-06T10:19:59.074Z,1275.00
2023-03-06T10:21:04.748Z,1297.00
2023-03-06T10:22:00.104Z,1299.00
2023-03-06T10:23:03.135Z,1300.00
2023-03-06T10:24:00.100Z,1299.00
2023-03-06T10:24:59.110Z,1306.00
2023-03-06T10:25:59.089Z,1338.00
2023-03-06T10:26:59.203Z,1366.00
2023-03-06T10:27:59.088Z,1373.00
2023-03-06T10:28:59.081Z,1392.00
2023-03-06T10:30:03.053Z,1377.00
2023-03-06T10:30:59.193Z,1378.00
2023-03-06T10:31:59.090Z,1383.00
2023-03-06T10:32:59.118Z,1401.00
2023-03-06T10:33:59.055Z,1420.00
2023-03-06T10:34:59.046Z,1456.00
2023-03-06T10:35:59.713Z,1485.00
2023-03-06T10:36:59.023Z,1471.00
2023-03-06T10:37:59.034Z,1504.00
2023-03-06T10:38:59.020Z,1583.00
2023-03-06T10:39:59.796Z,1551.00
2023-03-06T10:40:58.984Z,1564.00
2023-03-06T10:41:58.971Z,1600.00
2023-03-06T10:43:11.118Z,1597.00
2023-03-06T10:43:59.971Z,1599.00
2023-03-06T10:44:58.955Z,1606.00
2023-03-06T10:45:58.967Z,1620.00
2023-03-06T10:46:58.930Z,1640.00
2023-03-06T10:47:58.905Z,1663.00
2023-03-06T10:48:58.929Z,1678.00
2023-03-06T10:49:58.900Z,1695.00
2023-03-06T10:51:01.105Z,1697.00
2023-03-06T10:51:59.803Z,1698.00
2023-03-06T10:52:58.857Z,1703.00
2023-03-06T10:54:58.856Z,1725.00
2023-03-06T10:55:58.862Z,1765.00
2023-03-06T10:56:58.830Z,1783.00
2023-03-06T10:57:58.819Z,1833.00
2023-03-06T10:58:58.805Z,1854.00
2023-03-06T10:59:58.799Z,1870.00
2023-03-06T12:34:03.292Z,1564.00
2023-03-06T12:35:05.858Z,1563.00
2023-03-06T12:36:03.433Z,1557.00
2023-03-06T12:37:03.385Z,1554.00
2023-03-06T12:38:03.412Z,1542.00
2023-03-06T12:39:03.413Z,1541.00
2023-03-06T12:40:03.428Z,1526.00
2023-03-06T12:41:03.449Z,1539.00
2023-03-06T12:42:04.957Z,1510.00
2023-03-06T12:43:03.472Z,1528.00
2023-03-06T12:44:03.486Z,1512.00
2023-03-06T12:45:03.497Z,1509.00
2023-03-06T12:46:03.571Z,1504.00
2023-03-06T12:47:03.527Z,1502.00
2023-03-06T12:48:03.545Z,1487.00
2023-03-06T12:49:03.561Z,1488.00
2023-03-06T12:50:03.666Z,1491.00
2023-03-06T12:51:03.592Z,1474.00
2023-03-06T12:52:03.614Z,1467.00
2023-03-06T12:53:03.630Z,1452.00
2023-03-06T12:54:03.628Z,1457.00
2023-03-06T12:55:03.640Z,1451.00
2023-03-06T12:56:03.659Z,1444.00
2023-03-06T12:57:03.687Z,1440.00
2023-03-06T12:58:03.768Z,1453.00
2023-03-06T12:59:03.844Z,1437.00
2023-03-06T13:00:03.922Z,1424.00
2023-03-06T13:01:04.659Z,1422.00
2023-03-06T13:02:04.113Z,1425.00
2023-03-06T13:03:04.165Z,1413.00
2023-03-06T13:04:04.243Z,1425.00
2023-03-06T13:05:04.312Z,1410.00
2023-03-06T13:06:04.805Z,1408.00
2023-03-06T13:07:04.464Z,1406.00
2023-03-06T13:08:04.550Z,1403.00
2023-03-06T13:09:04.680Z,1400.00
2023-03-06T13:10:04.767Z,1394.00
2023-03-06T13:11:05.307Z,1363.00
2023-03-06T13:12:04.875Z,1376.00
2023-03-06T13:13:05.002Z,1374.00
2023-03-06T13:14:05.039Z,1362.00
2023-03-06T13:15:05.117Z,1367.00
2023-03-06T13:16:05.206Z,1360.00
2023-03-06T13:17:05.275Z,1364.00
2023-03-06T13:18:05.358Z,1351.00
2023-03-06T13:19:05.433Z,1341.00
2023-03-06T13:20:05.514Z,1335.00
2023-03-06T13:21:05.597Z,1348.00
2023-03-06T13:22:05.662Z,1332.00
2023-03-06T13:23:05.747Z,1331.00
2023-03-06T13:24:05.842Z,1326.00
2023-03-06T13:25:08.487Z,1343.00
2023-03-06T13:26:06.203Z,1320.00
2023-03-06T13:27:06.241Z,1312.00
2023-03-06T13:28:06.319Z,1301.00
2023-03-06T13:29:06.390Z,1297.00
2023-03-06T13:30:06.465Z,1296.00
2023-03-06T13:31:10.605Z,1291.00
2023-03-06T13:33:06.580Z,1292.00
2023-03-06T13:34:06.602Z,1284.00
2023-03-06T13:35:06.611Z,1274.00
2023-03-06T13:36:06.701Z,1279.00
2023-03-06T13:37:06.639Z,1282.00
2023-03-06T13:38:06.649Z,1274.00
2023-03-06T13:39:06.681Z,1264.00
2023-03-06T13:40:06.691Z,1278.00
2023-03-06T13:41:06.759Z,1255.00
2023-03-06T13:42:06.843Z,1260.00
2023-03-06T13:43:06.937Z,1264.00
2023-03-06T13:44:07.312Z,1239.00
2023-03-06T13:45:07.105Z,1234.00
2023-03-06T13:46:07.239Z,1233.00
2023-03-06T13:47:07.274Z,1240.00
2023-03-06T13:48:30.256Z,1235.00
2023-03-06T13:50:07.397Z,1236.00
2023-03-06T13:51:07.428Z,1221.00
2023-03-06T13:52:07.445Z,1215.00
2023-03-06T13:53:07.454Z,1222.00
2023-03-06T13:54:07.528Z,1218.00
2023-03-06T13:55:07.500Z,1214.00
2023-03-06T13:56:07.517Z,1212.00
2023-03-06T13:57:07.579Z,1199.00
2023-03-06T13:58:07.671Z,1209.00
2023-03-06T13:59:07.748Z,1196.00
2023-03-06T14:00:09.459Z,1198.00
2023-03-06T14:01:08.010Z,1201.00
2023-03-06T14:02:08.002Z,1203.00
2023-03-06T14:03:08.092Z,1194.00
2023-03-06T14:04:08.187Z,1188.00
2023-03-06T14:05:08.272Z,1191.00
2023-03-06T14:06:08.358Z,1184.00
2023-03-06T14:08:08.587Z,1204.00
2023-03-06T15:00:13.356Z,1031.00
2023-03-06T15:06:13.340Z,1039.00
2023-03-06T15:07:13.442Z,1034.00
2023-03-06T15:08:13.445Z,1009.00
2023-03-06T15:29:14.920Z,972.00
2023-03-06T15:43:15.702Z,946.00
2023-03-06T15:44:15.729Z,940.00
2023-03-06T15:45:15.797Z,933.00
2023-03-06T15:46:15.804Z,937.00
2023-03-06T15:47:15.836Z,942.00
2023-03-06T15:48:15.861Z,940.00
2023-03-06T15:49:15.904Z,932.00
2023-03-06T15:50:15.912Z,940.00
2023-03-06T15:52:15.977Z,928.00
2023-03-06T15:53:15.997Z,925.00
2023-03-06T15:54:16.035Z,937.00
2023-03-06T15:55:16.068Z,929.00
2023-03-06T15:56:16.362Z,919.00
2023-03-06T15:57:16.116Z,927.00
2023-03-06T15:58:16.188Z,922.00
2023-03-06T15:59:16.189Z,915.00
2023-03-06T16:00:26.882Z,920.00
2023-03-06T16:02:16.446Z,921.00
2023-03-06T16:03:16.493Z,907.00
2023-03-06T16:04:16.585Z,906.00
2023-03-06T16:05:16.598Z,907.00
2023-03-06T16:06:16.628Z,916.00
2023-03-06T16:07:16.660Z,908.00
2023-03-06T16:08:16.704Z,905.00
2023-03-06T16:09:16.738Z,895.00
2023-03-06T16:10:16.773Z,904.00
2023-03-06T16:11:16.801Z,891.00
2023-03-06T16:12:16.837Z,900.00
2023-03-06T16:13:16.860Z,898.00
2023-03-06T16:14:16.886Z,898.00
2023-03-06T16:15:16.929Z,892.00
2023-03-06T16:16:17.009Z,893.00
2023-03-06T16:17:17.001Z,893.00
2023-03-06T16:18:17.106Z,899.00
2023-03-06T16:19:26.021Z,887.00
2023-03-06T16:20:18.097Z,889.00
2023-03-06T16:21:17.104Z,889.00
2023-03-06T16:22:17.127Z,889.00
2023-03-06T16:23:17.864Z,888.00
2023-03-06T16:24:17.162Z,888.00
2023-03-06T16:25:17.184Z,897.00
2023-03-06T16:26:17.216Z,892.00
2023-03-06T16:27:17.234Z,872.00
2023-03-06T16:28:17.268Z,886.00
2023-03-06T16:29:17.272Z,871.00
2023-03-06T16:30:17.294Z,876.00
2023-03-06T16:31:17.407Z,874.00
2023-03-06T16:32:17.376Z,832.00
2023-03-06T16:33:17.363Z,837.00
2023-03-06T16:34:17.377Z,855.00
2023-03-06T16:35:17.509Z,885.00
2023-03-06T16:36:17.422Z,893.00
2023-03-06T16:37:17.461Z,902.00
2023-03-06T16:38:18.361Z,907.00
2023-03-06T16:39:17.517Z,1015.00
2023-03-06T16:40:17.534Z,1156.00
2023-03-06T16:41:17.540Z,1179.00
2023-03-06T16:42:17.581Z,1111.00
2023-03-06T16:43:17.586Z,1041.00
2023-03-06T16:44:17.610Z,1038.00
2023-03-06T16:45:17.653Z,1027.00
2023-03-06T16:46:17.730Z,1033.00
2023-03-06T16:47:17.681Z,1070.00
2023-03-06T16:48:17.738Z,1073.00
2023-03-06T16:49:17.781Z,1096.00
2023-03-06T16:50:17.828Z,1084.00
2023-03-06T16:51:17.795Z,1094.00
2023-03-06T16:52:17.822Z,1088.00
2023-03-06T16:53:17.826Z,1093.00
2023-03-06T16:54:17.908Z,1110.00
2023-03-06T16:55:17.876Z,1109.00
2023-03-06T16:56:17.913Z,1100.00
2023-03-06T16:57:17.956Z,1101.00
2023-03-06T16:58:18.001Z,1100.00
2023-03-06T16:59:18.073Z,1084.00
2023-03-06T17:00:18.085Z,1097.00
2023-03-06T17:01:18.163Z,1099.00
2023-03-06T17:02:18.187Z,1102.00
2023-03-06T17:03:18.283Z,1094.00
2023-03-06T17:04:18.245Z,1092.00
2023-03-06T17:05:18.296Z,1094.00
2023-03-06T17:06:18.330Z,1085.00
2023-03-06T17:07:18.377Z,1087.00
2023-03-06T17:08:18.422Z,1094.00
2023-03-06T17:09:18.477Z,1080.00
2023-03-06T17:10:18.507Z,1077.00
2023-03-06T17:11:18.551Z,1083.00
2023-03-06T17:12:18.605Z,1062.00
2023-03-06T17:13:18.701Z,1075.00
2023-03-06T17:14:18.676Z,1081.00
2023-03-06T17:15:18.787Z,1081.00
2023-03-06T17:16:18.878Z,1076.00
2023-03-06T17:17:18.809Z,1078.00
2023-03-06T17:18:18.853Z,1060.00
2023-03-06T17:19:18.890Z,1067.00
2023-03-06T17:20:18.943Z,1059.00
2023-03-06T17:21:19.004Z,1059.00
2023-03-06T17:22:19.045Z,1070.00
2023-03-06T18:30:23.406Z,922.00
2023-03-06T18:43:23.344Z,911.00
2023-03-06T18:44:23.312Z,910.00
2023-03-06T18:45:23.367Z,901.00
2023-03-06T18:46:24.414Z,909.00
2023-03-06T18:47:23.484Z,904.00
2023-03-06T18:48:23.922Z,903.00
2023-03-06T18:49:23.600Z,903.00
2023-03-06T18:50:23.665Z,888.00
2023-03-06T18:51:23.723Z,902.00
2023-03-06T18:52:24.418Z,897.00
2023-03-06T18:53:23.849Z,886.00
2023-03-06T18:54:23.901Z,877.00
2023-03-06T18:55:23.962Z,885.00
2023-03-06T18:56:24.025Z,883.00
2023-03-06T18:57:24.084Z,879.00
2023-03-06T18:58:24.938Z,870.00
2023-03-06T18:59:24.210Z,870.00
2023-03-06T19:00:24.300Z,873.00
2023-03-06T19:01:24.406Z,873.00
2023-03-06T19:02:24.388Z,865.00
2023-03-06T19:03:24.450Z,860.00
2023-03-06T19:04:24.578Z,859.00
2023-03-06T19:05:25.416Z,864.00
2023-03-06T19:06:26.979Z,846.00
2023-03-06T19:07:24.668Z,864.00
2023-03-06T19:08:24.701Z,848.00
2023-03-06T19:09:24.725Z,852.00
2023-03-06T19:10:24.751Z,853.00
2023-03-06T19:11:24.783Z,844.00
2023-03-06T19:12:24.841Z,833.00
2023-03-06T19:13:24.853Z,834.00
2023-03-06T19:14:24.900Z,834.00
2023-03-06T19:15:24.917Z,832.00
2023-03-06T19:16:26.032Z,831.00
2023-03-06T19:17:25.137Z,836.00
2023-03-06T19:18:25.044Z,835.00
2023-03-06T19:19:25.054Z,823.00
2023-03-06T19:20:25.106Z,834.00
2023-03-06T19:21:25.436Z,824.00
2023-03-06T19:22:25.174Z,814.00
2023-03-06T19:23:25.208Z,811.00
2023-03-06T19:24:25.242Z,814.00
2023-03-06T19:25:25.291Z,814.00
2023-03-06T19:26:25.360Z,836.00
2023-03-06T19:27:25.343Z,824.00
2023-03-06T19:28:25.373Z,826.00
2023-03-06T19:29:25.404Z,814.00
2023-03-06T19:30:25.470Z,816.00
2023-03-06T19:31:25.536Z,803.00
2023-03-06T19:32:25.558Z,799.00
2023-03-06T19:33:25.529Z,803.00
2023-03-06T19:34:25.565Z,810.00
2023-03-06T19:35:25.613Z,800.00
2023-03-06T19:36:25.606Z,798.00
2023-03-06T19:37:25.645Z,778.00
2023-03-06T19:38:25.689Z,785.00
2023-03-06T19:39:25.720Z,792.00
2023-03-06T19:40:25.746Z,787.00
2023-03-06T19:41:25.775Z,781.00
2023-03-06T19:42:25.808Z,788.00
2023-03-06T19:43:25.837Z,788.00
2023-03-06T19:44:25.855Z,792.00
2023-03-06T19:45:25.975Z,767.00
2023-03-06T19:46:25.919Z,793.00
2023-03-06T19:47:25.972Z,773.00
2023-03-06T19:48:25.989Z,781.00
2023-03-06T19:49:26.052Z,779.00
2023-03-06T19:50:26.055Z,763.00
2023-03-06T19:51:26.126Z,767.00
2023-03-06T19:52:26.101Z,775.00
2023-03-06T19:53:26.483Z,768.00
2023-03-06T19:54:26.177Z,773.00
2023-03-06T19:55:26.234Z,757.00
2023-03-06T19:56:26.409Z,776.00
2023-03-06T19:57:26.264Z,766.00
2023-03-06T19:58:26.290Z,741.00
2023-03-06T19:59:26.355Z,753.00
2023-03-06T20:00:26.415Z,755.00
2023-03-06T20:01:26.517Z,749.00
2023-03-06T20:02:26.548Z,760.00
2023-03-06T20:03:26.615Z,730.00
2023-03-06T20:04:26.811Z,760.00
2023-03-06T20:05:26.748Z,745.00
2023-03-06T20:06:26.806Z,758.00
2023-03-06T20:07:26.877Z,743.00
2023-03-06T20:08:26.945Z,753.00
2023-03-06T20:09:27.460Z,726.00
2023-03-06T20:10:27.067Z,738.00
2023-03-06T20:11:27.158Z,738.00
2023-03-06T20:12:27.218Z,739.00
2023-03-06T21:28:32.620Z,639.00
2023-03-06T21:29:32.696Z,642.00
2023-03-06T21:30:32.767Z,644.00
2023-03-06T21:31:32.867Z,643.00
2023-03-06T21:32:32.944Z,647.00
2023-03-06T21:33:32.984Z,640.00
2023-03-06T21:34:33.048Z,643.00
2023-03-06T21:35:33.142Z,639.00
2023-03-06T21:38:33.426Z,637.00
2023-03-06T21:39:33.484Z,637.00
2023-03-06T21:40:33.479Z,639.00
2023-03-06T21:41:33.640Z,631.00
2023-03-06T21:42:34.527Z,642.00
2023-03-06T21:43:33.717Z,637.00
2023-03-06T21:44:33.783Z,638.00
2023-03-06T21:45:33.893Z,635.00
2023-03-06T21:46:33.932Z,636.00
2023-03-06T21:47:34.021Z,641.00
2023-03-06T21:49:34.155Z,632.00
2023-03-06T21:50:34.237Z,632.00
2023-03-06T21:51:34.308Z,632.00
2023-03-06T21:52:34.392Z,634.00
2023-03-06T21:53:34.449Z,636.00
2023-03-06T21:54:34.520Z,628.00
2023-03-06T21:55:34.637Z,635.00
2023-03-06T21:56:34.656Z,632.00
2023-03-06T21:57:34.727Z,623.00
2023-03-06T21:58:34.824Z,628.00
2023-03-06T21:59:34.873Z,635.00
2023-03-06T22:00:34.995Z,626.00
2023-03-06T22:01:35.012Z,622.00
2023-03-06T22:02:35.099Z,631.00
2023-03-06T23:46:43.280Z,580.00
2023-03-06T23:47:43.365Z,578.00
2023-03-06T23:48:43.446Z,581.00
2023-03-06T23:49:43.529Z,573.00
2023-03-06T23:50:43.593Z,577.00
2023-03-06T23:51:43.667Z,581.00
2023-03-06T23:53:43.832Z,574.00
